Time;durP1;ratioP1;P1;durP2;ratioP2;P2;SDS_P1;SDS_P2;PMS_P1;PMS_P2;Temp;Humidity;BMP_temperature;BMP_pressure;BME280_temperature;BME280_humidity;BME280_pressure;Samples;Min_cycle;Max_cycle;Signal;HPM_P1;HPM_P2
2024/01/14 00:00:08;;;;;;;30.33;28.33;;;;;;;-5.22;100.00;101214.81;5041300;28;20045;-56
2024/01/14 00:02:37;;;;;;;29.58;27.58;;;;;;;-5.11;100.00;101209.00;5038771;28;20434;-56
2024/01/14 00:05:09;;;;;;;30.35;27.83;;;;;;;-5.10;100.00;101208.06;5035651;28;20065;-56
2024/01/14 00:07:37;;;;;;;28.80;27.00;;;;;;;-5.13;100.00;101201.28;5038639;28;20052;-63
2024/01/14 00:10:04;;;;;;;30.85;28.88;;;;;;;-5.32;100.00;101205.94;5042125;28;20158;-64
2024/01/14 00:12:31;;;;;;;30.92;28.92;;;;;;;-5.25;100.00;101198.63;5043540;28;20142;-64
2024/01/14 00:14:58;;;;;;;29.13;27.13;;;;;;;-5.15;100.00;101190.19;5044365;28;20053;-56
2024/01/14 00:17:25;;;;;;;27.70;25.90;;;;;;;-5.23;100.00;101192.44;5037709;28;20448;-56
2024/01/14 00:19:53;;;;;;;29.92;27.92;;;;;;;-5.20;100.00;101197.44;5045734;28;20707;-56
2024/01/14 00:22:20;;;;;;;28.50;26.50;;;;;;;-5.21;100.00;101195.75;5044795;28;20048;-56
2024/01/14 00:24:47;;;;;;;31.58;29.38;;;;;;;-5.15;100.00;101195.38;5046196;28;20052;-56
2024/01/14 00:27:14;;;;;;;29.23;27.13;;;;;;;-5.14;100.00;101206.59;5044013;28;20057;-56
2024/01/14 00:29:41;;;;;;;26.77;25.05;;;;;;;-5.14;100.00;101204.00;5045342;28;20056;-56
2024/01/14 00:32:08;;;;;;;27.20;25.45;;;;;;;-5.17;100.00;101191.22;5044239;28;20178;-64
2024/01/14 00:34:35;;;;;;;26.75;25.05;;;;;;;-5.08;100.00;101193.25;5045232;28;20052;-63
2024/01/14 00:37:03;;;;;;;28.80;26.90;;;;;;;-5.50;100.00;101199.25;5045450;28;20056;-63
2024/01/14 00:39:30;;;;;;;30.08;27.88;;;;;;;-5.30;100.00;101199.72;5044728;28;20128;-56
2024/01/14 00:41:56;;;;;;;27.20;25.40;;;;;;;-5.06;100.00;101205.16;5042949;28;20429;-56
2024/01/14 00:44:23;;;;;;;30.30;28.33;;;;;;;-5.68;100.00;101203.75;5044369;28;20060;-56
2024/01/14 00:46:50;;;;;;;29.98;28.08;;;;;;;-5.74;100.00;101193.75;5041941;28;20048;-63
2024/01/14 00:49:17;;;;;;;29.52;27.33;;;;;;;-6.16;100.00;101192.75;5045319;28;20411;-63
2024/01/14 00:51:44;;;;;;;27.25;25.45;;;;;;;-6.11;100.00;101193.28;5044482;28;20053;-56
2024/01/14 00:54:12;;;;;;;28.45;26.45;;;;;;;-6.01;100.00;101190.09;5045220;28;20044;-63
2024/01/14 00:56:41;;;;;;;30.42;28.38;;;;;;;-6.00;100.00;101185.75;5037613;28;20060;-63
2024/01/14 00:59:08;;;;;;;29.88;26.98;;;;;;;-6.02;100.00;101182.41;5043562;28;20048;-56
2024/01/14 01:01:35;;;;;;;30.15;28.10;;;;;;;-6.08;100.00;101175.88;5044367;28;20056;-56
2024/01/14 01:04:02;;;;;;;29.90;27.88;;;;;;;-5.96;100.00;101155.38;5043883;28;20462;-56
2024/01/14 01:06:29;;;;;;;28.40;26.60;;;;;;;-5.93;100.00;101152.59;5042721;28;20056;-55
2024/01/14 01:08:56;;;;;;;29.40;27.50;;;;;;;-6.10;100.00;101148.41;5044619;28;20056;-64
2024/01/14 01:11:24;;;;;;;29.98;27.88;;;;;;;-6.07;100.00;101141.31;5044349;28;20491;-55
2024/01/14 01:13:51;;;;;;;29.00;27.00;;;;;;;-6.12;100.00;101132.97;5045041;28;20710;-56
2024/01/14 01:16:18;;;;;;;33.50;31.40;;;;;;;-6.07;100.00;101122.38;5044253;28;20095;-63
2024/01/14 01:18:45;;;;;;;30.17;28.08;;;;;;;-5.85;100.00;101125.34;5044976;28;20060;-56
2024/01/14 01:21:12;;;;;;;33.10;30.90;;;;;;;-6.12;100.00;101111.47;5041891;28;20048;-56
2024/01/14 01:23:39;;;;;;;30.00;27.63;;;;;;;-6.18;100.00;101114.41;5044301;28;20044;-63
2024/01/14 01:26:06;;;;;;;29.90;27.67;;;;;;;-6.29;100.00;101110.69;5042670;28;20063;-63
2024/01/14 01:28:34;;;;;;;28.50;26.60;;;;;;;-6.06;100.00;101096.41;5041184;28;20535;-56
2024/01/14 01:31:01;;;;;;;29.48;27.67;;;;;;;-6.49;100.00;101087.72;5044187;28;20053;-64
2024/01/14 01:33:27;;;;;;;28.38;26.58;;;;;;;-6.72;100.00;101092.44;5043116;28;20761;-63
2024/01/14 01:35:54;;;;;;;31.20;29.10;;;;;;;-6.27;100.00;101084.72;5044570;28;20052;-56
2024/01/14 01:38:21;;;;;;;30.58;28.48;;;;;;;-5.81;100.00;101087.16;5039658;28;20057;-63
2024/01/14 01:40:48;;;;;;;33.78;31.42;;;;;;;-5.49;100.00;101077.47;5043491;28;20426;-63
2024/01/14 01:43:15;;;;;;;29.85;27.95;;;;;;;-6.05;100.00;101082.59;5043697;28;20045;-56
2024/01/14 01:45:43;;;;;;;31.70;29.45;;;;;;;-5.64;100.00;101081.81;5039758;28;20057;-64
2024/01/14 01:48:11;;;;;;;33.50;31.30;;;;;;;-5.40;100.00;101074.31;5040479;28;20057;-64
2024/01/14 01:50:38;;;;;;;33.85;31.38;;;;;;;-5.49;100.00;101067.13;5043963;28;20063;-56
2024/01/14 01:53:05;;;;;;;29.52;27.70;;;;;;;-5.63;100.00;101072.31;5047757;28;20044;-56
2024/01/14 01:55:31;;;;;;;32.08;29.98;;;;;;;-5.45;100.00;101075.53;5048572;28;20521;-63
2024/01/14 01:57:58;;;;;;;29.13;27.23;;;;;;;-5.28;100.00;101057.19;5039829;28;20057;-63
2024/01/14 02:00:26;;;;;;;32.08;29.38;;;;;;;-5.49;100.00;101056.75;5040940;28;20514;-56
2024/01/14 02:02:54;;;;;;;29.55;27.45;;;;;;;-4.92;100.00;101045.44;5047611;28;20063;-56
2024/01/14 02:05:22;;;;;;;27.58;25.58;;;;;;;-5.03;100.00;101048.72;5047862;28;20525;-63
2024/01/14 02:07:49;;;;;;;26.77;24.98;;;;;;;-5.20;100.00;101049.78;5047970;28;20446;-55
2024/01/14 02:10:16;;;;;;;28.77;26.88;;;;;;;-4.94;100.00;101045.53;5047208;28;20053;-56
2024/01/14 02:12:43;;;;;;;29.90;27.85;;;;;;;-5.03;100.00;101040.94;5047752;28;20053;-56
2024/01/14 02:15:10;;;;;;;28.15;26.42;;;;;;;-5.21;100.00;101039.50;5040254;28;20049;-64
2024/01/14 02:17:37;;;;;;;26.15;24.38;;;;;;;-5.27;100.00;101039.91;5047612;28;20453;-56
2024/01/14 02:20:07;;;;;;;28.25;26.35;;;;;;;-5.31;100.00;101034.09;5047444;28;20053;-63
2024/01/14 02:22:39;;;;;;;31.05;29.05;;;;;;;-5.48;100.00;101039.47;5047283;28;20051;-55
2024/01/14 02:25:08;;;;;;;32.70;30.25;;;;;;;-5.40;100.00;101029.47;5044118;28;20049;-63
2024/01/14 02:27:35;;;;;;;29.75;27.95;;;;;;;-5.26;100.00;101029.47;5047056;28;20041;-63
2024/01/14 02:30:04;;;;;;;32.15;29.95;;;;;;;-4.88;100.00;101036.53;5047957;28;20057;-63
2024/01/14 02:32:30;;;;;;;27.85;26.15;;;;;;;-4.90;100.00;101033.22;5047386;28;20053;-63
2024/01/14 02:34:58;;;;;;;26.17;24.50;;;;;;;-4.81;100.00;101014.50;5047106;28;20545;-63
2024/01/14 02:37:25;;;;;;;30.20;28.30;;;;;;;-4.92;100.00;101016.94;5046948;28;20048;-56
2024/01/14 02:39:52;;;;;;;30.17;28.27;;;;;;;-4.91;100.00;101016.84;5043612;28;20056;-63
2024/01/14 02:42:20;;;;;;;26.05;24.35;;;;;;;-5.01;100.00;101015.78;5045931;28;20518;-56
2024/01/14 02:44:47;;;;;;;27.48;25.67;;;;;;;-5.01;100.00;101020.97;5046441;28;20056;-63
2024/01/14 02:47:14;;;;;;;29.10;27.10;;;;;;;-4.92;100.00;101011.78;5044511;28;20049;-64
2024/01/14 02:49:41;;;;;;;28.70;26.90;;;;;;;-5.09;100.00;101011.06;5047026;28;20053;-56
2024/01/14 02:52:08;;;;;;;31.00;28.90;;;;;;;-4.98;100.00;101002.63;5046573;28;20045;-64
2024/01/14 02:54:35;;;;;;;32.15;30.00;;;;;;;-4.93;100.00;100994.53;5047183;28;20045;-56
2024/01/14 02:57:02;;;;;;;28.92;27.02;;;;;;;-4.85;100.00;101000.06;5044545;28;20493;-63
2024/01/14 02:59:32;;;;;;;27.65;25.75;;;;;;;-4.88;100.00;101008.88;5043888;28;20076;-56
2024/01/14 03:01:59;;;;;;;28.50;26.70;;;;;;;-4.88;100.00;101000.25;5047317;28;20060;-56
2024/01/14 03:04:26;;;;;;;28.38;26.50;;;;;;;-4.83;100.00;101000.81;5046158;28;20429;-56
2024/01/14 03:06:53;;;;;;;29.75;27.73;;;;;;;-4.72;100.00;100990.59;5047147;28;20490;-64
2024/01/14 03:09:20;;;;;;;31.95;29.60;;;;;;;-4.66;100.00;100990.19;5046403;28;20045;-63
2024/01/14 03:11:47;;;;;;;30.10;28.10;;;;;;;-4.55;100.00;100986.03;5046320;28;20053;-63
2024/01/14 03:14:14;;;;;;;29.45;27.65;;;;;;;-4.67;100.00;100983.31;5043559;28;20056;-63
2024/01/14 03:16:43;;;;;;;30.77;28.67;;;;;;;-4.67;100.00;100980.72;5046020;28;20144;-65
2024/01/14 03:19:13;;;;;;;30.50;28.20;;;;;;;-4.77;100.00;100977.09;5044540;28;20068;-65
2024/01/14 03:21:40;;;;;;;29.05;26.98;;;;;;;-4.79;100.00;100971.16;5039913;28;20061;-64
2024/01/14 03:24:07;;;;;;;30.33;28.35;;;;;;;-4.88;100.00;100979.53;5047073;28;20055;-63
2024/01/14 03:26:33;;;;;;;28.30;26.40;;;;;;;-4.99;100.00;100974.22;5046002;28;20537;-63
2024/01/14 03:29:00;;;;;;;27.70;25.77;;;;;;;-4.95;100.00;100967.91;5046178;28;20417;-64
2024/01/14 03:31:27;;;;;;;32.70;30.35;;;;;;;-4.82;100.00;100967.94;5043499;28;20072;-56
2024/01/14 03:33:55;;;;;;;27.67;25.92;;;;;;;-4.79;100.00;100965.97;5042874;28;20045;-56
2024/01/14 03:36:22;;;;;;;29.20;27.35;;;;;;;-4.67;100.00;100966.94;5037797;28;20057;-56
2024/01/14 03:38:49;;;;;;;29.50;27.73;;;;;;;-4.79;100.00;100965.16;5042529;28;20577;-63
2024/01/14 03:41:16;;;;;;;29.63;27.52;;;;;;;-4.90;100.00;100966.69;5046309;28;20053;-63
2024/01/14 03:43:43;;;;;;;28.65;26.77;;;;;;;-4.90;100.00;100965.84;5045806;28;20049;-56
2024/01/14 03:46:10;;;;;;;30.35;28.27;;;;;;;-4.99;100.00;100958.66;5045494;28;20056;-63
2024/01/14 03:48:37;;;;;;;28.42;26.73;;;;;;;-5.03;100.00;100954.63;5045422;28;20071;-63
2024/01/14 03:51:05;;;;;;;26.83;25.13;;;;;;;-5.14;100.00;100956.16;5045793;28;20106;-63
2024/01/14 03:53:32;;;;;;;27.63;25.92;;;;;;;-5.07;100.00;100956.59;5042929;28;20056;-56
2024/01/14 03:55:59;;;;;;;27.25;25.55;;;;;;;-5.16;100.00;100962.38;5046241;28;20056;-63
2024/01/14 03:58:26;;;;;;;32.42;29.95;;;;;;;-5.12;100.00;100958.63;5039326;28;20454;-64
2024/01/14 04:00:53;;;;;;;25.98;24.38;;;;;;;-5.13;100.00;100955.22;5045444;28;20364;-55
2024/01/14 04:03:20;;;;;;;24.70;23.20;;;;;;;-5.07;100.00;100952.22;5042928;28;20507;-56
2024/01/14 04:05:46;;;;;;;27.10;25.30;;;;;;;-4.94;100.00;100947.06;5045354;28;20084;-63
2024/01/14 04:08:15;;;;;;;26.73;24.83;;;;;;;-5.01;100.00;100942.41;5042489;28;20056;-64
2024/01/14 04:10:41;;;;;;;26.60;24.90;;;;;;;-5.06;100.00;100933.16;5037919;28;20087;-64
2024/01/14 04:13:08;;;;;;;25.35;23.48;;;;;;;-5.16;100.00;100921.75;5045171;28;20049;-64
2024/01/14 04:15:36;;;;;;;27.63;25.80;;;;;;;-5.23;100.00;100928.25;5045060;28;20048;-56
2024/01/14 04:18:02;;;;;;;28.75;26.85;;;;;;;-5.35;100.00;100932.47;5043240;28;20446;-63
2024/01/14 04:20:29;;;;;;;25.13;23.52;;;;;;;-5.26;100.00;100922.44;5045165;28;20514;-64
2024/01/14 04:22:56;;;;;;;27.45;25.73;;;;;;;-5.28;100.00;100925.13;5045402;28;20661;-63
2024/01/14 04:25:24;;;;;;;31.08;29.17;;;;;;;-5.17;100.00;100920.09;5044653;28;20036;-63
2024/01/14 04:27:51;;;;;;;25.67;24.08;;;;;;;-5.07;100.00;100928.09;5045767;28;20049;-63
2024/01/14 04:30:18;;;;;;;26.05;24.45;;;;;;;-5.21;100.00;100926.38;5044625;28;20059;-63
2024/01/14 04:32:45;;;;;;;25.73;23.95;;;;;;;-5.04;100.00;100933.06;5044923;28;20506;-63
2024/01/14 04:35:12;;;;;;;27.52;25.67;;;;;;;-5.07;100.00;100933.28;5045085;28;20053;-64
2024/01/14 04:37:39;;;;;;;27.90;26.20;;;;;;;-5.06;100.00;100924.56;5042119;28;20093;-56
2024/01/14 04:40:07;;;;;;;27.92;26.13;;;;;;;-5.04;100.00;100916.72;5045364;28;20434;-64
2024/01/14 04:42:35;;;;;;;27.50;25.83;;;;;;;-4.84;100.00;100911.88;5042881;28;20052;-64
2024/01/14 04:45:02;;;;;;;25.20;23.70;;;;;;;-5.13;100.00;100916.38;5044592;28;20056;-63
2024/01/14 04:47:29;;;;;;;25.70;24.10;;;;;;;-5.24;100.00;100912.81;5045236;28;20127;-56
2024/01/14 04:49:56;;;;;;;25.65;24.05;;;;;;;-5.08;100.00;100910.91;5042826;28;20459;-63
2024/01/14 04:52:23;;;;;;;26.48;24.83;;;;;;;-5.64;100.00;100900.66;5041954;28;20052;-56
2024/01/14 04:54:50;;;;;;;27.98;26.08;;;;;;;-5.20;100.00;100906.53;5044847;28;20056;-63
2024/01/14 04:57:17;;;;;;;27.85;26.15;;;;;;;-5.57;100.00;100904.53;5044955;28;20122;-64
2024/01/14 04:59:45;;;;;;;26.40;24.77;;;;;;;-5.63;100.00;100909.25;5039926;28;20510;-56
2024/01/14 05:02:12;;;;;;;27.45;25.85;;;;;;;-5.50;100.00;100897.22;5043429;28;20794;-64
2024/01/14 05:04:39;;;;;;;29.30;27.30;;;;;;;-5.70;100.00;100888.09;5045047;28;20057;-64
2024/01/14 05:07:06;;;;;;;27.02;25.25;;;;;;;-5.71;100.00;100886.47;5045687;28;20080;-64
2024/01/14 05:09:33;;;;;;;27.65;26.05;;;;;;;-6.21;100.00;100885.28;5045064;28;20824;-63
2024/01/14 05:12:00;;;;;;;29.77;27.65;;;;;;;-6.31;100.00;100886.78;5045384;28;20049;-64
2024/01/14 05:14:29;;;;;;;28.15;26.08;;;;;;;-6.40;100.00;100879.59;5041416;28;20041;-64
2024/01/14 05:16:57;;;;;;;27.17;25.48;;;;;;;-6.56;100.00;100882.25;5044044;28;20445;-64
2024/01/14 05:19:24;;;;;;;28.15;26.45;;;;;;;-6.87;100.00;100880.63;5045515;28;20068;-64
2024/01/14 05:21:52;;;;;;;29.98;27.95;;;;;;;-7.04;100.00;100876.47;5045345;28;20059;-64
2024/01/14 05:24:19;;;;;;;30.35;28.35;;;;;;;-6.91;100.00;100888.56;5044461;28;20589;-56
2024/01/14 05:26:45;;;;;;;27.20;25.70;;;;;;;-6.72;100.00;100880.59;5046198;28;20060;-56
2024/01/14 05:29:13;;;;;;;29.42;27.58;;;;;;;-7.10;100.00;100880.25;5048826;28;20055;-56
2024/01/14 05:31:38;;;;;;;26.40;24.80;;;;;;;-6.92;100.00;100888.69;5045565;28;20068;-56
2024/01/14 05:34:06;;;;;;;29.00;27.15;;;;;;;-6.91;100.00;100890.31;5044965;28;20053;-56
2024/01/14 05:36:33;;;;;;;27.20;25.48;;;;;;;-6.96;100.00;100882.00;5047353;28;20418;-56
2024/01/14 05:39:00;;;;;;;25.45;23.95;;;;;;;-7.41;100.00;100883.75;5044211;28;20049;-64
2024/01/14 05:41:27;;;;;;;26.40;24.77;;;;;;;-7.47;100.00;100881.50;5048220;28;20041;-55
2024/01/14 05:43:54;;;;;;;25.77;24.20;;;;;;;-7.20;100.00;100871.34;5049487;28;20419;-56
2024/01/14 05:46:20;;;;;;;27.98;26.00;;;;;;;-7.26;100.00;100864.81;5048978;28;20071;-56
2024/01/14 05:48:47;;;;;;;24.95;23.55;;;;;;;-7.67;100.00;100864.56;5049315;28;20423;-56
2024/01/14 05:51:16;;;;;;;25.75;24.15;;;;;;;-7.64;100.00;100861.81;5047520;28;20056;-56
2024/01/14 05:53:43;;;;;;;26.13;24.70;;;;;;;-7.43;100.00;100862.34;5047807;28;20424;-64
2024/01/14 05:56:09;;;;;;;26.30;24.08;;;;;;;-7.51;100.00;100857.59;5042671;28;20594;-56
2024/01/14 05:58:37;;;;;;;25.10;23.50;;;;;;;-7.37;100.00;100868.00;5043540;28;20064;-56
2024/01/14 06:01:04;;;;;;;24.25;22.75;;;;;;;-7.20;100.00;100858.44;5047086;28;20056;-56
2024/01/14 06:03:30;;;;;;;24.55;22.30;;;;;;;-7.17;100.00;100853.94;5044525;28;20844;-64
2024/01/14 06:05:58;;;;;;;23.77;22.48;;;;;;;-7.25;100.00;100847.56;5047332;28;20056;-64
2024/01/14 06:08:26;;;;;;;21.50;20.20;;;;;;;-7.33;100.00;100837.66;5042227;28;20135;-65
2024/01/14 06:10:53;;;;;;;24.55;22.65;;;;;;;-6.95;100.00;100850.13;5048855;28;20049;-56
2024/01/14 06:13:19;;;;;;;23.90;22.58;;;;;;;-6.81;100.00;100836.38;5046057;28;20057;-64
2024/01/14 06:15:46;;;;;;;26.30;23.73;;;;;;;-6.87;100.00;100827.22;5047823;28;20048;-64
2024/01/14 06:18:13;;;;;;;25.45;23.55;;;;;;;-6.96;100.00;100836.38;5048521;28;20566;-64
2024/01/14 06:20:40;;;;;;;25.92;24.33;;;;;;;-6.63;100.00;100835.25;5047817;28;20057;-63
2024/01/14 06:23:07;;;;;;;27.27;25.67;;;;;;;-5.88;100.00;100832.34;5047266;28;20530;-64
2024/01/14 06:25:35;;;;;;;24.30;22.90;;;;;;;-5.43;100.00;100833.75;5049107;28;20052;-63
2024/01/14 06:28:02;;;;;;;24.67;23.20;;;;;;;-5.12;100.00;100840.31;5048473;28;20048;-64
2024/01/14 06:30:29;;;;;;;22.65;21.35;;;;;;;-4.49;100.00;100843.03;5048069;28;20580;-63
2024/01/14 06:32:56;;;;;;;22.33;20.95;;;;;;;-4.26;100.00;100844.03;5048772;28;20507;-64
2024/01/14 06:35:23;;;;;;;22.90;21.50;;;;;;;-4.14;100.00;100845.75;5047317;28;20041;-56
2024/01/14 06:37:50;;;;;;;22.77;21.27;;;;;;;-3.73;100.00;100826.41;5045659;28;20478;-56
2024/01/14 06:40:17;;;;;;;26.02;23.92;;;;;;;-3.44;100.00;100845.06;5039428;28;20049;-64
2024/01/14 06:42:46;;;;;;;25.17;23.10;;;;;;;-3.49;100.00;100837.59;5047702;28;20458;-63
2024/01/14 06:45:13;;;;;;;21.75;20.35;;;;;;;-2.92;100.00;100830.78;5043965;28;20049;-64
2024/01/14 06:47:40;;;;;;;23.77;22.38;;;;;;;-2.91;100.00;100837.63;5047853;28;20045;-64
2024/01/14 06:50:08;;;;;;;24.83;23.02;;;;;;;-2.63;100.00;100840.72;5046923;28;20057;-56
2024/01/14 06:52:35;;;;;;;23.73;22.13;;;;;;;-2.63;100.00;100828.56;5047107;28;20107;-56
2024/01/14 06:55:04;;;;;;;25.30;23.60;;;;;;;-2.29;100.00;100828.56;5047389;28;20059;-64
2024/01/14 06:57:31;;;;;;;26.40;24.65;;;;;;;-2.21;100.00;100821.00;5047287;28;20442;-64
2024/01/14 07:00:00;;;;;;;23.08;21.58;;;;;;;-1.51;100.00;100824.06;5043240;28;20053;-64
2024/01/14 07:02:27;;;;;;;28.33;25.77;;;;;;;-1.38;100.00;100827.34;5044388;28;20085;-65
2024/01/14 07:04:53;;;;;;;29.25;27.35;;;;;;;-1.55;100.00;100822.69;5047962;28;20068;-64
2024/01/14 07:07:20;;;;;;;28.50;26.50;;;;;;;-0.87;100.00;100823.16;5040759;28;20061;-64
2024/01/14 07:09:47;;;;;;;26.50;24.70;;;;;;;-0.87;100.00;100821.38;5045488;28;20749;-64
2024/01/14 07:12:14;;;;;;;26.20;24.45;;;;;;;-0.75;100.00;100819.50;5047171;28;20557;-64
2024/01/14 07:14:44;;;;;;;24.10;22.50;;;;;;;-0.45;100.00;100823.91;5040648;28;21056;-64
2024/01/14 07:17:15;;;;;;;26.27;24.48;;;;;;;-0.41;100.00;100817.44;5045854;28;20049;-64
2024/01/14 07:19:42;;;;;;;27.05;25.05;;;;;;;-0.64;100.00;100815.97;5047843;28;20064;-56
2024/01/14 07:22:09;;;;;;;27.50;25.45;;;;;;;-0.06;100.00;100814.41;5047417;28;20768;-56
2024/01/14 07:24:36;;;;;;;27.40;25.30;;;;;;;-0.31;100.00;100807.03;5045825;28;20095;-64
2024/01/14 07:27:03;;;;;;;23.60;21.85;;;;;;;-0.51;100.00;100795.72;5046313;28;20053;-65
2024/01/14 07:29:30;;;;;;;24.63;22.83;;;;;;;0.67;100.00;100791.31;5046414;28;20048;-56
2024/01/14 07:31:57;;;;;;;24.67;22.90;;;;;;;1.26;100.00;100791.97;5047211;28;20052;-64
2024/01/14 07:34:26;;;;;;;25.02;23.30;;;;;;;0.58;100.00;100807.84;5045951;28;20079;-63
2024/01/14 07:36:52;;;;;;;23.40;21.02;;;;;;;0.37;100.00;100807.97;5047061;28;20577;-64
2024/01/14 07:39:19;;;;;;;22.65;21.25;;;;;;;0.58;100.00;100791.34;5041323;28;20080;-64
2024/01/14 07:41:46;;;;;;;22.17;20.67;;;;;;;0.67;100.00;100790.50;5044811;28;20056;-64
2024/01/14 07:44:13;;;;;;;26.52;24.48;;;;;;;0.08;100.00;100792.28;5043722;28;20056;-63
2024/01/14 07:46:40;;;;;;;22.88;21.38;;;;;;;1.02;100.00;100795.09;5043236;28;20053;-65
2024/01/14 07:49:06;;;;;;;23.02;21.52;;;;;;;1.04;100.00;100785.31;5044911;28;20063;-57
2024/01/14 07:51:35;;;;;;;21.35;19.88;;;;;;;1.03;100.00;100791.53;5046266;28;20064;-56
2024/01/14 07:54:01;;;;;;;24.63;22.88;;;;;;;0.90;100.00;100789.19;5046850;28;20056;-56
2024/01/14 07:56:28;;;;;;;23.83;22.13;;;;;;;0.95;100.00;100787.97;5046465;28;20051;-56
2024/01/14 07:58:55;;;;;;;24.23;22.52;;;;;;;0.71;100.00;100785.81;5042092;28;20056;-56
2024/01/14 08:01:22;;;;;;;25.55;23.75;;;;;;;0.81;100.00;100773.53;5046733;28;20056;-64
2024/01/14 08:03:49;;;;;;;25.95;23.55;;;;;;;0.83;100.00;100777.66;5046889;28;20060;-56
2024/01/14 08:06:21;;;;;;;23.58;21.77;;;;;;;0.96;100.00;100769.50;5045387;28;20045;-64
2024/01/14 08:08:49;;;;;;;;;;;;;;;1.65;100.00;100770.88;5042651;28;20048;-56
2024/01/14 08:11:16;;;;;;;25.52;23.60;;;;;;;2.16;100.00;100777.28;5044587;28;20382;-63
2024/01/14 08:13:43;;;;;;;25.52;23.27;;;;;;;1.25;100.00;100766.78;5045494;28;20064;-64
2024/01/14 08:16:10;;;;;;;24.27;22.58;;;;;;;2.94;100.00;100768.72;5044756;28;20056;-65
2024/01/14 08:18:37;;;;;;;24.23;22.42;;;;;;;3.09;100.00;100761.09;5045724;28;20755;-56
2024/01/14 08:21:09;;;;;;;24.55;22.60;;;;;;;3.12;100.00;100763.41;5045782;28;20166;-63
2024/01/14 08:23:36;;;;;;;26.67;24.52;;;;;;;4.40;100.00;100751.75;5044804;28;20049;-63
2024/01/14 08:26:05;;;;;;;26.58;24.50;;;;;;;4.74;100.00;100769.16;5044898;28;20438;-64
2024/01/14 08:28:33;;;;;;;23.88;22.17;;;;;;;3.61;100.00;100766.25;5044226;28;20099;-64
2024/01/14 08:31:00;;;;;;;24.65;22.75;;;;;;;3.75;100.00;100762.16;5042485;28;20049;-64
2024/01/14 08:33:27;;;;;;;24.40;22.58;;;;;;;5.59;100.00;100753.59;5044266;28;20049;-56
2024/01/14 08:35:54;;;;;;;23.33;21.65;;;;;;;5.09;100.00;100749.50;5046081;28;20072;-65
2024/01/14 08:38:21;;;;;;;25.00;23.10;;;;;;;6.27;100.00;100744.13;5046103;28;20044;-65
2024/01/14 08:40:48;;;;;;;25.35;23.45;;;;;;;6.66;100.00;100737.88;5045138;28;20064;-57
2024/01/14 08:43:16;;;;;;;29.25;27.08;;;;;;;5.72;100.00;100739.88;5042107;28;20060;-56
2024/01/14 08:45:43;;;;;;;31.85;29.65;;;;;;;6.91;100.00;100742.91;5037863;28;20049;-57
2024/01/14 08:48:13;;;;;;;33.92;31.52;;;;;;;5.50;100.00;100737.00;5044980;28;20144;-65
2024/01/14 08:50:40;;;;;;;31.40;29.05;;;;;;;5.67;100.00;100740.38;5043782;28;20053;-56
2024/01/14 08:53:06;;;;;;;27.45;25.45;;;;;;;6.40;100.00;100736.44;5045104;28;20103;-57
2024/01/14 08:55:33;;;;;;;28.63;26.52;;;;;;;5.98;100.00;100731.66;5042835;28;20045;-57
2024/01/14 08:58:00;;;;;;;25.48;23.58;;;;;;;5.18;100.00;100739.78;5044190;28;20049;-64
2024/01/14 09:00:28;;;;;;;26.70;24.70;;;;;;;5.31;100.00;100731.34;5041298;28;20590;-64
2024/01/14 09:02:55;;;;;;;26.45;24.55;;;;;;;4.86;100.00;100732.78;5046652;28;20490;-65
2024/01/14 09:05:23;;;;;;;27.60;25.60;;;;;;;5.25;100.00;100725.75;5044433;28;20155;-57
2024/01/14 09:07:49;;;;;;;28.02;25.83;;;;;;;4.07;100.00;100720.19;5047412;28;20118;-64
2024/01/14 09:10:16;;;;;;;26.95;25.15;;;;;;;5.85;100.00;100710.28;5047243;28;20041;-64
2024/01/14 09:12:43;;;;;;;25.38;23.40;;;;;;;5.62;100.00;100713.72;5047773;28;20049;-64
2024/01/14 09:15:13;;;;;;;28.63;26.02;;;;;;;6.43;92.72;100695.69;5047626;28;20049;-64
2024/01/14 09:17:41;;;;;;;28.63;26.42;;;;;;;6.31;95.10;100691.84;5046796;28;20443;-64
2024/01/14 09:20:09;;;;;;;26.52;24.42;;;;;;;6.16;92.66;100695.25;5045326;28;20045;-57
2024/01/14 09:22:36;;;;;;;26.02;24.13;;;;;;;6.83;95.22;100694.44;5047708;28;20506;-57
2024/01/14 09:25:03;;;;;;;25.08;23.17;;;;;;;6.51;83.67;100697.44;5047861;28;20063;-56
2024/01/14 09:27:35;;;;;;;29.58;27.42;;;;;;;6.03;90.35;100689.75;5042724;28;20056;-64
2024/01/14 09:30:01;;;;;;;30.77;28.48;;;;;;;5.52;100.00;100686.78;5039068;28;20444;-64
2024/01/14 09:32:28;;;;;;;30.60;28.30;;;;;;;4.92;100.00;100687.38;5044707;28;20045;-56
2024/01/14 09:34:57;;;;;;;27.80;25.70;;;;;;;4.96;93.88;100681.59;5042705;28;20526;-56
2024/01/14 09:37:24;;;;;;;29.40;27.23;;;;;;;5.25;100.00;100688.06;5049149;28;20055;-64
2024/01/14 09:39:51;;;;;;;31.30;29.00;;;;;;;5.22;100.00;100680.50;5042680;28;20088;-56
2024/01/14 09:42:25;;;;;;;28.33;26.23;;;;;;;6.67;90.52;100673.50;5048230;28;20048;-56
2024/01/14 09:44:58;;;;;;;36.30;33.80;;;;;;;6.78;72.94;100665.16;5046270;28;20525;-64
2024/01/14 09:47:26;;;;;;;27.08;24.88;;;;;;;5.72;69.81;100655.53;5049823;28;20068;-56
2024/01/14 09:49:58;;;;;;;26.52;24.23;;;;;;;5.10;88.57;100666.06;5043750;28;20059;-57
2024/01/14 09:52:25;;;;;;;28.83;26.73;;;;;;;5.11;83.50;100659.81;5048834;28;20498;-63
2024/01/14 09:54:52;;;;;;;30.27;28.17;;;;;;;4.71;85.74;100662.41;5046694;28;20059;-55
2024/01/14 09:57:20;;;;;;;29.63;27.45;;;;;;;4.61;100.00;100659.16;5044769;28;20045;-64
2024/01/14 09:59:48;;;;;;;29.10;27.20;;;;;;;5.89;88.17;100670.22;5043354;28;20612;-57
2024/01/14 10:02:15;;;;;;;30.85;28.65;;;;;;;6.14;73.42;100662.13;5046357;28;20053;-64
2024/01/14 10:04:43;;;;;;;32.53;30.13;;;;;;;6.27;77.01;100661.56;5048019;28;20423;-65
2024/01/14 10:07:12;;;;;;;29.42;27.13;;;;;;;5.73;80.86;100651.91;5048422;28;20437;-57
2024/01/14 10:09:43;;;;;;;31.00;28.60;;;;;;;6.87;94.73;100653.50;5045834;28;20055;-57
2024/01/14 10:12:12;;;;;;;32.17;29.85;;;;;;;8.43;66.85;100648.56;5048507;28;20053;-57
2024/01/14 10:14:39;;;;;;;31.17;28.58;;;;;;;7.13;62.27;100643.44;5045856;28;20134;-56
2024/01/14 10:17:06;;;;;;;34.80;29.70;;;;;;;6.66;68.56;100645.50;5046904;28;20052;-56
2024/01/14 10:19:33;;;;;;;31.60;29.17;;;;;;;7.41;65.07;100644.38;5044872;28;20064;-56
2024/01/14 10:22:00;;;;;;;27.80;25.60;;;;;;;6.10;66.73;100640.59;5045329;28;20546;-56
2024/01/14 10:24:29;;;;;;;26.75;24.65;;;;;;;7.29;65.60;100630.84;5045017;28;20482;-57
2024/01/14 10:26:56;;;;;;;27.20;25.00;;;;;;;7.35;64.33;100626.63;5043921;28;20593;-57
2024/01/14 10:29:24;;;;;;;27.40;25.30;;;;;;;8.38;57.46;100620.03;5047537;28;20048;-57
2024/01/14 10:31:54;;;;;;;29.20;26.80;;;;;;;9.15;53.65;100616.34;5044670;28;20067;-56
2024/01/14 10:34:21;;;;;;;28.52;26.25;;;;;;;7.98;54.47;100601.19;5048408;28;20056;-56
2024/01/14 10:36:48;;;;;;;27.17;24.98;;;;;;;6.95;58.54;100604.22;5047563;28;20053;-57
2024/01/14 10:39:15;;;;;;;28.15;25.55;;;;;;;6.05;100.00;100598.13;5048098;28;20049;-57
2024/01/14 10:41:44;;;;;;;28.80;26.50;;;;;;;6.18;100.00;100602.78;5048203;28;20105;-67
2024/01/14 10:44:12;;;;;;;30.08;25.35;;;;;;;6.25;100.00;100595.78;5047713;28;20056;-67
2024/01/14 10:46:45;;;;;;;29.55;27.20;;;;;;;6.73;76.19;100590.16;5046447;28;20095;-57
2024/01/14 10:49:12;;;;;;;30.33;28.02;;;;;;;6.71;100.00;100590.31;5048705;28;20700;-63
2024/01/14 10:51:41;;;;;;;30.17;27.83;;;;;;;7.41;68.10;100572.22;5048362;28;20060;-64
2024/01/14 10:54:17;;;;;;;28.67;26.38;;;;;;;7.10;74.14;100570.69;5046751;28;20111;-64
2024/01/14 10:56:49;;;;;;;27.08;24.98;;;;;;;6.99;68.70;100566.72;5045493;28;20475;-64
2024/01/14 10:59:17;;;;;;;27.70;25.50;;;;;;;7.85;67.20;100564.06;5040494;28;20048;-64
2024/01/14 11:01:49;;;;;;;27.88;25.67;;;;;;;7.93;57.55;100561.28;5043033;28;20510;-65
2024/01/14 11:04:18;;;;;;;26.92;24.83;;;;;;;9.44;57.70;100571.97;5041229;28;20118;-65